Terminal Aerodrome Forecast
Issued by NWS

Home | Current Version | Previous Version | Text Only | Print | Product List | Glossary On
Versions: 1 2 3 4 5 6 7 8 9 10 11 12 13 14
000
FTUS43 KSGF 301121
TAFJLN
TAF
KJLN 301121Z 3012/3112 VRB03KT 1/2SM FG BKN003
     FM301300 VRB03KT 2SM BR SCT005
     FM301400 15005KT 5SM BR SKC
     FM301500 18007KT P6SM SCT050
     FM310000 15006KT P6SM FEW080=

USA.gov is the U.S. government's official web portal to all federal, state and local government web resources and services.